Аэропорт: Витебск Восточный. Витебск

ICAO: UMII

METAR:
Информация по данной станции не доступна
METAR:
2019-07-23 14:05:00
TAF UMII 231405Z 2315/2324 02006MPS 6000 BKN010 TEMPO 2315/2324 VRB12MPS 0800 +TSRA BKN003 BKN012CB